createdAt,value
2018-11-27T00:00:08.453Z,2.50
2018-11-27T00:02:34.420Z,2.87
2018-11-27T00:05:00.421Z,2.50
2018-11-27T00:07:26.383Z,2.50
2018-11-27T00:09:52.378Z,2.37
2018-11-27T00:12:18.352Z,2.57
2018-11-27T00:14:44.313Z,2.57
2018-11-27T00:17:10.289Z,2.97
2018-11-27T00:19:37.024Z,3.00
2018-11-27T00:22:02.974Z,2.40
2018-11-27T00:24:28.947Z,2.97
2018-11-27T00:26:54.941Z,2.67
2018-11-27T00:29:20.924Z,2.10
2018-11-27T00:31:47.671Z,2.50
2018-11-27T00:34:15.036Z,2.90
2018-11-27T00:36:41.045Z,3.03
2018-11-27T00:39:07.763Z,2.87
2018-11-27T00:41:33.773Z,2.60
2018-11-27T00:43:59.726Z,3.23
2018-11-27T00:46:25.717Z,3.40
2018-11-27T00:48:51.720Z,2.73
2018-11-27T00:51:17.692Z,2.70
2018-11-27T00:53:43.682Z,3.17
2018-11-27T00:56:09.633Z,3.03
2018-11-27T00:58:35.605Z,3.07
2018-11-27T01:01:01.570Z,2.83
2018-11-27T01:03:27.564Z,3.30
2018-11-27T01:05:53.572Z,3.33
2018-11-27T01:08:19.568Z,3.17
2018-11-27T01:10:46.288Z,3.10
2018-11-27T01:13:13.035Z,3.37
2018-11-27T01:15:38.995Z,3.20
2018-11-27T01:18:04.984Z,3.37
2018-11-27T01:20:30.949Z,3.83
2018-11-27T01:22:56.927Z,3.80
2018-11-27T01:25:23.634Z,3.20
2018-11-27T01:27:49.636Z,3.67
2018-11-27T01:30:15.625Z,3.50
2018-11-27T01:32:42.353Z,3.43
2018-11-27T01:35:09.074Z,3.30
2018-11-27T01:37:35.024Z,3.20
2018-11-27T01:40:01.762Z,4.10
2018-11-27T01:42:28.467Z,3.33
2018-11-27T01:44:54.458Z,3.10
2018-11-27T01:47:20.421Z,3.47
2018-11-27T01:49:46.416Z,3.13
2018-11-27T01:52:12.403Z,3.10
2018-11-27T01:54:39.139Z,3.30
2018-11-27T01:57:05.849Z,3.23
2018-11-27T01:59:31.817Z,3.70
2018-11-27T02:01:57.799Z,3.63
2018-11-27T02:04:23.765Z,2.73
2018-11-27T02:06:49.758Z,3.60
2018-11-27T02:09:16.468Z,2.90
2018-11-27T02:11:42.467Z,3.70
2018-11-27T02:14:08.446Z,3.87
2018-11-27T02:16:35.195Z,3.60
2018-11-27T02:19:01.905Z,3.90
2018-11-27T02:21:27.878Z,3.70
2018-11-27T02:23:53.843Z,3.40
2018-11-27T02:26:19.847Z,4.10
2018-11-27T02:28:45.819Z,3.50
2018-11-27T02:31:12.556Z,3.03
2018-11-27T02:33:39.293Z,3.57
2018-11-27T02:36:05.261Z,3.40
2018-11-27T02:38:31.253Z,3.77
2018-11-27T02:40:57.973Z,3.20
2018-11-27T02:43:23.968Z,2.90
2018-11-27T02:45:49.947Z,3.87
2018-11-27T02:48:16.709Z,3.57
2018-11-27T02:50:42.683Z,3.73
2018-11-27T02:53:09.409Z,2.97
2018-11-27T02:55:35.386Z,3.30
2018-11-27T02:58:01.351Z,3.47
2018-11-27T03:00:27.325Z,3.93
2018-11-27T03:02:54.016Z,3.23
2018-11-27T03:05:19.983Z,3.10
2018-11-27T03:07:46.678Z,3.87
2018-11-27T03:10:12.687Z,3.73
2018-11-27T03:12:38.660Z,3.17
2018-11-27T03:15:05.367Z,3.53
2018-11-27T03:17:31.380Z,3.93
2018-11-27T03:19:57.332Z,3.80
2018-11-27T03:22:24.096Z,4.43
2018-11-27T03:24:50.068Z,4.00
2018-11-27T03:27:16.069Z,4.00
2018-11-27T03:29:42.045Z,4.10
2018-11-27T03:32:08.751Z,3.70
2018-11-27T03:34:34.746Z,4.40
2018-11-27T03:37:00.693Z,4.23
2018-11-27T03:39:26.702Z,4.43
2018-11-27T03:41:52.681Z,3.60
2018-11-27T03:44:19.408Z,3.97
2018-11-27T03:46:46.122Z,4.53
2018-11-27T03:49:12.127Z,4.57
2018-11-27T03:51:38.068Z,4.10
2018-11-27T03:54:04.050Z,3.53
2018-11-27T03:56:30.012Z,3.80
2018-11-27T03:58:56.020Z,3.90
2018-11-27T04:01:21.998Z,3.90
2018-11-27T04:03:48.707Z,2.60
2018-11-27T04:06:14.684Z,3.20
2018-11-27T04:08:40.646Z,3.93
2018-11-27T04:11:06.655Z,4.03
2018-11-27T04:13:32.617Z,3.37
2018-11-27T04:15:58.609Z,3.87
2018-11-27T04:18:24.578Z,3.60
2018-11-27T04:20:51.276Z,3.67
2018-11-27T04:23:17.251Z,3.43
2018-11-27T04:25:43.223Z,4.20
2018-11-27T04:28:09.218Z,3.33
2018-11-27T04:30:35.179Z,3.70
2018-11-27T04:33:01.194Z,4.20
2018-11-27T04:35:27.165Z,3.60
2018-11-27T04:37:53.166Z,3.87
2018-11-27T04:40:19.111Z,3.83
2018-11-27T04:42:45.123Z,3.63
2018-11-27T04:45:11.114Z,4.23
2018-11-27T04:47:37.057Z,4.07
2018-11-27T04:50:03.788Z,3.40
2018-11-27T04:52:29.772Z,3.53
2018-11-27T04:54:55.762Z,3.73
2018-11-27T04:57:22.459Z,3.73
2018-11-27T04:59:48.481Z,3.50
2018-11-27T05:02:14.432Z,3.73
2018-11-27T05:04:41.155Z,3.00
2018-11-27T05:07:07.110Z,4.33
2018-11-27T05:09:33.847Z,3.13
2018-11-27T05:12:00.536Z,3.40
2018-11-27T05:14:26.517Z,3.77
2018-11-27T05:16:52.475Z,3.47
2018-11-27T05:19:18.459Z,4.07
2018-11-27T05:21:44.460Z,3.83
2018-11-27T05:24:10.516Z,3.93
2018-11-27T05:26:36.536Z,4.57
2018-11-27T05:29:02.530Z,4.00
2018-11-27T05:31:29.250Z,4.17
2018-11-27T05:33:55.228Z,3.30
2018-11-27T05:36:21.223Z,3.93
2018-11-27T05:38:47.912Z,4.10
2018-11-27T05:41:13.916Z,3.23
2018-11-27T05:43:39.897Z,4.20
2018-11-27T05:46:05.895Z,3.60
2018-11-27T05:48:31.851Z,3.87
2018-11-27T05:50:58.580Z,3.93
2018-11-27T05:53:24.528Z,3.57
2018-11-27T05:55:51.220Z,4.43
2018-11-27T05:58:17.221Z,4.67
2018-11-27T06:00:43.202Z,4.37
2018-11-27T06:03:09.934Z,4.80
2018-11-27T06:05:36.656Z,4.30
2018-11-27T06:08:02.653Z,3.73
2018-11-27T06:10:28.632Z,4.37
2018-11-27T06:12:55.319Z,4.20
2018-11-27T06:15:21.296Z,5.53
2018-11-27T06:17:47.992Z,4.97
2018-11-27T06:20:13.969Z,4.43
2018-11-27T06:22:39.963Z,5.13
2018-11-27T06:25:06.706Z,4.50
2018-11-27T06:27:32.676Z,4.10
2018-11-27T06:29:58.681Z,5.70
2018-11-27T06:32:24.667Z,4.80
2018-11-27T06:34:50.668Z,4.60
2018-11-27T06:37:16.638Z,4.80
2018-11-27T06:39:43.333Z,4.70
2018-11-27T06:42:09.331Z,4.30
2018-11-27T06:44:35.287Z,4.67
2018-11-27T06:47:01.255Z,5.33
2018-11-27T06:49:27.227Z,4.77
2018-11-27T06:51:53.223Z,5.03
2018-11-27T06:54:19.160Z,5.50
2018-11-27T06:56:45.146Z,4.50
2018-11-27T06:59:12.028Z,5.80
2018-11-27T07:01:38.029Z,5.77
2018-11-27T07:04:03.982Z,5.20
2018-11-27T07:06:29.970Z,5.27
2018-11-27T07:08:55.923Z,5.57
2018-11-27T07:11:21.929Z,5.43
2018-11-27T07:13:47.937Z,4.87
2018-11-27T07:16:13.947Z,5.93
2018-11-27T07:18:39.923Z,5.37
2018-11-27T07:21:05.885Z,5.27
2018-11-27T07:23:32.633Z,5.10
2018-11-27T07:25:59.342Z,6.20
2018-11-27T07:28:26.082Z,6.10
2018-11-27T07:30:52.039Z,5.17
2018-11-27T07:33:18.039Z,5.33
2018-11-27T07:35:43.987Z,5.80
2018-11-27T07:38:09.963Z,4.73
2018-11-27T07:40:35.925Z,7.00
2018-11-27T07:43:02.645Z,5.70
2018-11-27T07:45:29.355Z,6.20
2018-11-27T07:47:55.343Z,5.17
2018-11-27T07:50:21.291Z,5.03
2018-11-27T07:52:47.279Z,5.00
2018-11-27T07:55:13.233Z,6.27
2018-11-27T07:57:39.210Z,6.43
2018-11-27T08:00:05.909Z,5.77
2018-11-27T08:02:31.906Z,6.77
2018-11-27T08:04:57.860Z,6.17
2018-11-27T08:07:23.856Z,5.60
2018-11-27T08:09:49.809Z,5.73
2018-11-27T08:12:15.786Z,6.17
2018-11-27T08:14:41.751Z,5.57
2018-11-27T08:17:07.722Z,6.57
2018-11-27T08:19:33.713Z,6.53
2018-11-27T08:22:00.434Z,6.47
2018-11-27T08:24:26.415Z,5.10
2018-11-27T08:26:52.384Z,6.13
2018-11-27T08:29:18.383Z,6.03
2018-11-27T08:31:44.368Z,6.43
2018-11-27T08:34:10.358Z,7.23
2018-11-27T08:36:36.318Z,6.97
2018-11-27T08:39:03.056Z,6.73
2018-11-27T08:41:29.753Z,8.23
2018-11-27T08:43:55.724Z,7.13
2018-11-27T08:46:21.689Z,7.40
2018-11-27T08:48:47.697Z,7.10
2018-11-27T08:51:13.713Z,7.07
2018-11-27T08:53:39.726Z,7.80
2018-11-27T08:56:05.691Z,7.70
2018-11-27T08:58:31.678Z,6.57
2018-11-27T09:00:57.624Z,7.83
2018-11-27T09:03:23.590Z,7.87
2018-11-27T09:05:50.324Z,8.53
2018-11-27T09:08:17.025Z,7.97
2018-11-27T09:10:43.024Z,7.63
2018-11-27T09:13:09.024Z,8.70
2018-11-27T09:15:35.009Z,8.53
2018-11-27T09:18:00.971Z,7.70
2018-11-27T09:20:26.948Z,7.93
2018-11-27T09:22:52.897Z,9.60
2018-11-27T09:25:19.650Z,6.60
2018-11-27T09:27:46.356Z,6.83
2018-11-27T09:30:12.368Z,8.23
2018-11-27T09:32:38.348Z,8.53
2018-11-27T09:35:04.348Z,10.17
2018-11-27T09:37:31.061Z,9.80
2018-11-27T09:39:57.074Z,8.30
2018-11-27T09:42:23.052Z,9.13
2018-11-27T09:44:49.071Z,9.47
2018-11-27T09:47:15.781Z,8.97
2018-11-27T09:49:41.781Z,9.73
2018-11-27T09:52:08.505Z,10.80
2018-11-27T09:54:34.489Z,8.83
2018-11-27T09:57:01.212Z,8.83
2018-11-27T09:59:27.171Z,7.33
2018-11-27T10:01:53.157Z,9.60
2018-11-27T10:04:19.110Z,7.70
2018-11-27T10:06:45.102Z,8.30
2018-11-27T10:09:11.070Z,8.73
2018-11-27T10:11:37.062Z,8.47
2018-11-27T10:14:03.782Z,7.90
2018-11-27T10:16:29.800Z,8.97
2018-11-27T10:18:55.787Z,6.87
2018-11-27T10:21:21.801Z,8.07
2018-11-27T10:23:47.789Z,8.60
2018-11-27T10:26:14.536Z,9.43
2018-11-27T10:28:41.234Z,8.37
2018-11-27T10:31:07.245Z,8.77
2018-11-27T10:33:33.208Z,8.27
2018-11-27T10:35:59.167Z,9.47
2018-11-27T10:38:26.388Z,9.50
2018-11-27T10:40:51.188Z,9.20
2018-11-27T10:43:19.907Z,6.87
2018-11-27T10:45:43.933Z,7.43
2018-11-27T10:48:09.953Z,7.63
2018-11-27T10:50:35.940Z,8.97
2018-11-27T10:53:02.695Z,8.20
2018-11-27T10:55:28.647Z,8.53
2018-11-27T10:57:54.657Z,7.77
2018-11-27T11:00:20.664Z,8.80
2018-11-27T11:02:46.631Z,8.17
2018-11-27T11:05:13.365Z,9.70
2018-11-27T11:07:40.080Z,9.23
2018-11-27T11:10:06.055Z,9.57
2018-11-27T11:12:32.033Z,9.63
2018-11-27T11:14:58.031Z,9.47
2018-11-27T11:17:24.030Z,9.63
2018-11-27T11:19:50.010Z,10.00
2018-11-27T11:22:15.990Z,8.83
2018-11-27T11:24:41.946Z,9.00
2018-11-27T11:27:07.939Z,9.33
2018-11-27T11:29:33.912Z,9.67
2018-11-27T11:32:00.675Z,8.60
2018-11-27T11:34:26.678Z,9.93
2018-11-27T11:36:52.667Z,10.30
2018-11-27T11:39:18.625Z,9.73
2018-11-27T11:41:45.358Z,10.10
2018-11-27T11:44:12.066Z,8.97
2018-11-27T11:46:38.071Z,9.30
2018-11-27T11:49:04.022Z,9.93
2018-11-27T11:51:29.999Z,9.77
2018-11-27T11:53:55.989Z,9.33
2018-11-27T11:56:22.703Z,8.53
2018-11-27T11:58:48.699Z,9.30
2018-11-27T12:01:14.666Z,10.07
2018-11-27T12:03:40.685Z,9.50
2018-11-27T12:06:06.664Z,9.30
2018-11-27T12:08:32.625Z,9.93
2018-11-27T12:10:58.681Z,8.63
2018-11-27T12:13:24.651Z,8.10
2018-11-27T12:15:50.662Z,9.33
2018-11-27T12:18:16.622Z,8.80
2018-11-27T12:20:42.612Z,8.97
2018-11-27T12:23:09.657Z,9.17
2018-11-27T12:25:34.613Z,8.10
2018-11-27T12:28:01.344Z,10.20
2018-11-27T12:30:27.335Z,7.87
2018-11-27T12:32:53.315Z,9.63
2018-11-27T12:35:20.031Z,8.93
2018-11-27T12:37:46.777Z,8.43
2018-11-27T12:40:13.489Z,8.43
2018-11-27T12:42:39.473Z,9.47
2018-11-27T12:45:05.442Z,8.67
2018-11-27T12:47:31.438Z,8.87
2018-11-27T12:49:57.396Z,9.30
2018-11-27T12:52:23.367Z,8.93
2018-11-27T12:54:49.328Z,7.53
2018-11-27T12:57:15.343Z,8.37
2018-11-27T12:59:41.331Z,8.70
2018-11-27T13:02:07.315Z,7.83
2018-11-27T13:04:33.303Z,8.77
2018-11-27T13:06:59.314Z,7.43
2018-11-27T13:09:25.291Z,7.47
2018-11-27T13:11:51.257Z,7.77
2018-11-27T13:14:17.260Z,9.13
2018-11-27T13:16:43.238Z,7.53
2018-11-27T13:19:09.260Z,7.77
2018-11-27T13:21:35.236Z,9.23
2018-11-27T13:24:01.263Z,7.43
2018-11-27T13:26:27.232Z,6.93
2018-11-27T13:28:53.230Z,8.70
2018-11-27T13:31:19.211Z,8.00
2018-11-27T13:33:45.914Z,7.43
2018-11-27T13:36:11.890Z,7.80
2018-11-27T13:38:37.859Z,7.50
2018-11-27T13:41:03.837Z,7.93
2018-11-27T13:43:29.801Z,8.80
2018-11-27T13:45:55.789Z,7.23
2018-11-27T13:48:21.791Z,7.47
2018-11-27T13:50:47.810Z,7.90
2018-11-27T13:53:14.513Z,8.50
2018-11-27T13:55:40.487Z,7.17
2018-11-27T13:58:06.489Z,7.30
2018-11-27T14:00:33.246Z,8.53
2018-11-27T14:02:59.218Z,7.90
2018-11-27T14:05:25.231Z,7.27
2018-11-27T14:07:51.205Z,7.03
2018-11-27T14:10:17.936Z,7.10
2018-11-27T14:12:44.687Z,6.63
2018-11-27T14:15:10.700Z,7.17
2018-11-27T14:17:36.689Z,7.77
2018-11-27T14:20:02.673Z,8.23
2018-11-27T14:22:28.724Z,7.77
2018-11-27T14:24:54.688Z,6.80
2018-11-27T14:27:20.676Z,7.47
2018-11-27T14:29:46.658Z,7.30
2018-11-27T14:32:13.357Z,6.67
2018-11-27T14:34:39.402Z,6.97
2018-11-27T14:37:05.379Z,7.17
2018-11-27T14:39:31.389Z,6.70
2018-11-27T14:41:57.344Z,6.93
2018-11-27T14:44:23.347Z,6.30
2018-11-27T14:46:49.320Z,5.70
2018-11-27T14:49:15.314Z,6.27
2018-11-27T14:51:41.285Z,7.00
2018-11-27T14:54:07.304Z,7.00
2018-11-27T14:56:33.282Z,6.67
2018-11-27T14:58:59.294Z,6.20
2018-11-27T15:01:25.266Z,6.23
2018-11-27T15:03:51.996Z,6.23
2018-11-27T15:06:18.697Z,6.73
2018-11-27T15:08:44.660Z,6.43
2018-11-27T15:11:12.787Z,6.27
2018-11-27T15:13:37.443Z,5.97
2018-11-27T15:16:04.174Z,6.60
2018-11-27T15:18:30.158Z,7.43
2018-11-27T15:20:56.151Z,6.60
2018-11-27T15:23:22.125Z,7.30
2018-11-27T15:25:48.117Z,7.23
2018-11-27T15:28:14.123Z,6.37
2018-11-27T15:30:40.086Z,6.57
2018-11-27T15:33:06.093Z,6.37
2018-11-27T15:35:32.096Z,6.93
2018-11-27T15:37:58.080Z,6.57
2018-11-27T15:40:24.826Z,5.87
2018-11-27T15:42:51.538Z,5.70
2018-11-27T15:45:17.519Z,7.30
2018-11-27T15:47:43.506Z,7.03
2018-11-27T15:50:10.216Z,7.33
2018-11-27T15:52:36.215Z,6.60
2018-11-27T15:55:02.216Z,7.63
2018-11-27T15:57:28.228Z,7.10
2018-11-27T15:59:54.213Z,6.57
2018-11-27T16:02:20.194Z,7.47
2018-11-27T16:04:46.160Z,6.40
2018-11-27T16:07:12.148Z,6.70
2018-11-27T16:09:38.134Z,6.97
2018-11-27T16:12:04.860Z,7.03
2018-11-27T16:14:31.590Z,6.53
2018-11-27T16:16:57.581Z,7.03
2018-11-27T16:19:23.593Z,6.17
2018-11-27T16:21:49.549Z,6.53
2018-11-27T16:24:15.553Z,7.47
2018-11-27T16:26:41.523Z,7.27
2018-11-27T16:29:08.282Z,7.30
2018-11-27T16:31:34.983Z,6.70
2018-11-27T16:34:00.943Z,6.27
2018-11-27T16:36:26.940Z,6.27
2018-11-27T16:38:53.663Z,6.90
2018-11-27T16:41:20.401Z,6.13
2018-11-27T16:43:46.418Z,6.17
2018-11-27T16:46:12.422Z,7.10
2018-11-27T16:48:38.451Z,6.67
2018-11-27T16:51:04.442Z,7.23
2018-11-27T16:53:30.423Z,7.13
2018-11-27T16:55:56.391Z,7.10
2018-11-27T16:58:22.355Z,7.00
2018-11-27T17:00:48.376Z,7.23
2018-11-27T17:03:14.331Z,6.57
2018-11-27T17:05:40.329Z,7.13
2018-11-27T17:08:06.302Z,6.37
2018-11-27T17:10:32.305Z,6.93
2018-11-27T17:12:59.291Z,7.43
2018-11-27T17:15:25.267Z,7.50
2018-11-27T17:17:51.977Z,7.27
2018-11-27T17:20:17.939Z,6.20
2018-11-27T17:22:44.678Z,6.73
2018-11-27T17:25:11.377Z,7.03
2018-11-27T17:27:37.370Z,6.57
2018-11-27T17:30:03.354Z,6.40
2018-11-27T17:32:29.340Z,7.97
2018-11-27T17:34:55.313Z,6.57
2018-11-27T17:37:22.036Z,6.40
2018-11-27T17:39:48.003Z,7.00
2018-11-27T17:42:14.012Z,6.40
2018-11-27T17:44:40.715Z,6.00
2018-11-27T17:47:07.482Z,6.57
2018-11-27T17:49:33.464Z,5.70
2018-11-27T17:51:59.449Z,5.63
2018-11-27T17:54:25.430Z,6.60
2018-11-27T17:56:51.695Z,6.47
2018-11-27T17:59:17.664Z,7.13
2018-11-27T18:01:43.649Z,5.90
2018-11-27T18:04:09.624Z,5.93
2018-11-27T18:06:35.585Z,6.27
2018-11-27T18:09:01.624Z,5.37
2018-11-27T18:11:27.610Z,7.10
2018-11-27T18:13:54.357Z,5.97
2018-11-27T18:16:21.073Z,5.47
2018-11-27T18:18:47.066Z,5.67
2018-11-27T18:21:13.063Z,6.40
2018-11-27T18:23:39.745Z,6.60
2018-11-27T18:26:05.739Z,6.10
2018-11-27T18:28:31.705Z,6.90
2018-11-27T18:30:57.682Z,5.70
2018-11-27T18:33:23.654Z,6.73
2018-11-27T18:35:49.645Z,7.10
2018-11-27T18:38:15.642Z,6.27
2018-11-27T18:40:41.644Z,6.37
2018-11-27T18:43:08.356Z,6.07
2018-11-27T18:45:34.375Z,7.53
2018-11-27T18:48:00.343Z,6.77
2018-11-27T18:50:26.311Z,7.03
2018-11-27T18:52:52.299Z,6.60
2018-11-27T18:55:18.269Z,8.43
2018-11-27T18:57:44.546Z,7.00
2018-11-27T19:00:10.787Z,8.10
2018-11-27T19:02:36.734Z,7.00
2018-11-27T19:05:02.708Z,6.53
2018-11-27T19:07:29.386Z,7.57
2018-11-27T19:09:55.422Z,7.17
2018-11-27T19:12:21.406Z,6.50
2018-11-27T19:14:47.379Z,6.70
2018-11-27T19:17:13.328Z,7.27
2018-11-27T19:19:40.079Z,7.60
2018-11-27T19:22:06.064Z,7.40
2018-11-27T19:24:32.044Z,5.97
2018-11-27T19:26:58.040Z,6.27
2018-11-27T19:29:24.795Z,7.13
2018-11-27T19:31:50.749Z,7.07
2018-11-27T19:34:16.774Z,6.20
2018-11-27T19:36:42.738Z,5.73
2018-11-27T19:39:08.711Z,5.77
2018-11-27T19:41:34.743Z,6.73
2018-11-27T19:44:00.678Z,7.17
2018-11-27T19:46:26.671Z,6.40
2018-11-27T19:48:53.595Z,6.07
2018-11-27T19:51:18.920Z,6.00
2018-11-27T19:53:44.883Z,6.63
2018-11-27T19:56:10.847Z,6.83
2018-11-27T19:58:37.562Z,5.97
2018-11-27T20:01:04.291Z,6.43
2018-11-27T20:03:30.287Z,5.63
2018-11-27T20:05:56.261Z,7.37
2018-11-27T20:08:23.016Z,5.77
2018-11-27T20:10:49.017Z,6.73
2018-11-27T20:13:15.782Z,8.00
2018-11-27T20:15:41.772Z,6.03
2018-11-27T20:18:07.776Z,6.03
2018-11-27T20:20:33.767Z,6.50
2018-11-27T20:22:59.749Z,6.80
2018-11-27T20:25:26.491Z,5.63
2018-11-27T20:27:53.204Z,6.57
2018-11-27T20:30:19.205Z,6.17
2018-11-27T20:32:45.183Z,5.03
2018-11-27T20:35:18.071Z,7.07
2018-11-27T20:37:44.042Z,5.77
2018-11-27T20:40:10.039Z,5.83
2018-11-27T20:42:36.233Z,6.13
2018-11-27T20:45:02.712Z,7.57
2018-11-27T20:47:28.670Z,5.87
2018-11-27T20:49:54.676Z,7.23
2018-11-27T20:52:20.669Z,6.53
2018-11-27T20:54:46.640Z,6.67
2018-11-27T20:57:12.637Z,5.53
2018-11-27T20:59:38.594Z,6.80
2018-11-27T21:02:04.613Z,6.07
2018-11-27T21:04:30.585Z,5.43
2018-11-27T21:06:56.579Z,6.43
2018-11-27T21:09:23.320Z,6.57
2018-11-27T21:11:50.032Z,5.30
2018-11-27T21:14:15.990Z,5.90
2018-11-27T21:16:42.735Z,6.10
2018-11-27T21:19:09.431Z,7.10
2018-11-27T21:21:35.425Z,4.93
2018-11-27T21:24:01.456Z,6.33
2018-11-27T21:26:27.449Z,5.20
2018-11-27T21:28:54.194Z,5.20
2018-11-27T21:31:24.186Z,5.47
2018-11-27T21:33:46.943Z,6.10
2018-11-27T21:36:13.649Z,5.60
2018-11-27T21:38:39.631Z,5.43
2018-11-27T21:41:05.593Z,4.43
2018-11-27T21:43:31.595Z,6.87
2018-11-27T21:45:57.557Z,6.13
2018-11-27T21:48:23.533Z,5.17
2018-11-27T21:50:49.498Z,4.40
2018-11-27T21:53:15.499Z,4.73
2018-11-27T21:55:41.455Z,7.10
2018-11-27T21:58:09.057Z,5.73
2018-11-27T22:00:35.022Z,4.93
2018-11-27T22:03:00.982Z,5.60
2018-11-27T22:05:26.970Z,4.57
2018-11-27T22:07:52.947Z,5.77
2018-11-27T22:10:18.934Z,5.37
2018-11-27T22:12:45.665Z,5.13
2018-11-27T22:15:12.405Z,5.57
2018-11-27T22:17:39.141Z,5.37
2018-11-27T22:20:06.242Z,4.67
2018-11-27T22:22:32.277Z,6.63
2018-11-27T22:24:58.287Z,5.40
2018-11-27T22:27:24.296Z,4.93
2018-11-27T22:29:50.301Z,6.23
2018-11-27T22:32:17.002Z,5.57
2018-11-27T22:34:42.998Z,5.73
2018-11-27T22:37:08.979Z,5.73
2018-11-27T22:39:35.724Z,5.13
2018-11-27T22:42:01.759Z,5.30
2018-11-27T22:44:27.754Z,4.53
2018-11-27T22:46:54.515Z,5.43
2018-11-27T22:49:21.240Z,6.60
2018-11-27T22:51:48.006Z,5.00
2018-11-27T22:54:13.991Z,5.07
2018-11-27T22:56:40.152Z,5.97
2018-11-27T22:59:06.488Z,5.57
2018-11-27T23:01:32.491Z,6.17
2018-11-27T23:03:58.431Z,3.97
2018-11-27T23:06:25.151Z,5.37
2018-11-27T23:08:51.109Z,5.13
2018-11-27T23:11:17.074Z,5.77
2018-11-27T23:13:43.078Z,4.93
2018-11-27T23:16:09.033Z,6.27
2018-11-27T23:18:35.770Z,5.30
2018-11-27T23:21:02.477Z,5.80
2018-11-27T23:23:28.455Z,6.33
2018-11-27T23:25:55.151Z,5.87
2018-11-27T23:28:21.135Z,5.43
2018-11-27T23:30:47.817Z,6.73
2018-11-27T23:33:13.794Z,4.37
2018-11-27T23:35:40.491Z,5.17
2018-11-27T23:38:06.469Z,6.17
2018-11-27T23:40:32.455Z,4.53
2018-11-27T23:42:58.425Z,6.07
2018-11-27T23:45:24.429Z,4.57
2018-11-27T23:47:50.385Z,6.90
2018-11-27T23:50:16.390Z,4.40
2018-11-27T23:52:42.347Z,5.77
2018-11-27T23:55:08.340Z,4.90
2018-11-27T23:57:34.307Z,5.60
